sensor_id;sensor_type;location;lat;lon;timestamp;P1;durP1;ratioP1;P2;durP2;ratioP2
10934;SDS011;5520;45.752;4.874;2022-09-16T00:01:19;1.40;;;1.30;;
10934;SDS011;5520;45.752;4.874;2022-09-16T00:03:47;1.70;;;1.57;;
10934;SDS011;5520;45.752;4.874;2022-09-16T00:06:18;2.47;;;1.60;;
10934;SDS011;5520;45.752;4.874;2022-09-16T00:08:47;1.80;;;1.70;;
10934;SDS011;5520;45.752;4.874;2022-09-16T00:11:15;1.60;;;1.50;;
10934;SDS011;5520;45.752;4.874;2022-09-16T00:13:43;2.53;;;1.90;;
10934;SDS011;5520;45.752;4.874;2022-09-16T00:16:12;2.10;;;1.80;;
10934;SDS011;5520;45.752;4.874;2022-09-16T00:18:44;2.80;;;1.60;;
10934;SDS011;5520;45.752;4.874;2022-09-16T00:21:12;2.67;;;1.57;;
10934;SDS011;5520;45.752;4.874;2022-09-16T00:23:39;3.57;;;1.80;;
10934;SDS011;5520;45.752;4.874;2022-09-16T00:26:07;2.27;;;1.60;;
10934;SDS011;5520;45.752;4.874;2022-09-16T00:28:35;2.10;;;1.43;;
10934;SDS011;5520;45.752;4.874;2022-09-16T00:31:03;2.80;;;1.60;;
10934;SDS011;5520;45.752;4.874;2022-09-16T00:33:31;2.23;;;1.60;;
10934;SDS011;5520;45.752;4.874;2022-09-16T00:36:07;2.00;;;1.60;;
10934;SDS011;5520;45.752;4.874;2022-09-16T00:38:36;2.60;;;1.87;;
10934;SDS011;5520;45.752;4.874;2022-09-16T00:41:04;2.20;;;1.40;;
10934;SDS011;5520;45.752;4.874;2022-09-16T00:43:49;1.40;;;1.30;;
10934;SDS011;5520;45.752;4.874;2022-09-16T00:46:18;1.83;;;1.73;;
10934;SDS011;5520;45.752;4.874;2022-09-16T00:48:47;4.73;;;1.73;;
10934;SDS011;5520;45.752;4.874;2022-09-16T00:51:17;4.10;;;2.00;;
10934;SDS011;5520;45.752;4.874;2022-09-16T00:53:47;3.07;;;1.70;;
10934;SDS011;5520;45.752;4.874;2022-09-16T00:56:17;5.37;;;2.00;;
10934;SDS011;5520;45.752;4.874;2022-09-16T00:58:49;2.10;;;1.77;;
10934;SDS011;5520;45.752;4.874;2022-09-16T01:01:18;2.33;;;1.90;;
10934;SDS011;5520;45.752;4.874;2022-09-16T01:03:47;2.80;;;1.73;;
10934;SDS011;5520;45.752;4.874;2022-09-16T01:06:18;2.63;;;2.10;;
10934;SDS011;5520;45.752;4.874;2022-09-16T01:08:46;1.97;;;1.87;;
10934;SDS011;5520;45.752;4.874;2022-09-16T01:11:16;2.00;;;1.90;;
10934;SDS011;5520;45.752;4.874;2022-09-16T01:13:44;6.47;;;2.20;;
10934;SDS011;5520;45.752;4.874;2022-09-16T01:16:13;4.27;;;2.63;;
10934;SDS011;5520;45.752;4.874;2022-09-16T01:18:47;2.73;;;1.90;;
10934;SDS011;5520;45.752;4.874;2022-09-16T01:21:27;4.07;;;1.80;;
10934;SDS011;5520;45.752;4.874;2022-09-16T01:24:03;3.90;;;2.00;;
10934;SDS011;5520;45.752;4.874;2022-09-16T01:26:53;4.80;;;2.30;;
10934;SDS011;5520;45.752;4.874;2022-09-16T01:29:45;2.90;;;1.93;;
10934;SDS011;5520;45.752;4.874;2022-09-16T01:32:23;2.53;;;1.60;;
10934;SDS011;5520;45.752;4.874;2022-09-16T01:34:55;2.10;;;1.90;;
10934;SDS011;5520;45.752;4.874;2022-09-16T01:37:30;2.17;;;1.97;;
10934;SDS011;5520;45.752;4.874;2022-09-16T01:40:02;2.40;;;2.00;;
10934;SDS011;5520;45.752;4.874;2022-09-16T01:42:36;1.77;;;1.67;;
10934;SDS011;5520;45.752;4.874;2022-09-16T01:45:05;2.50;;;1.83;;
10934;SDS011;5520;45.752;4.874;2022-09-16T01:47:37;2.03;;;1.67;;
10934;SDS011;5520;45.752;4.874;2022-09-16T01:50:13;2.20;;;2.00;;
10934;SDS011;5520;45.752;4.874;2022-09-16T01:52:44;2.07;;;1.77;;
10934;SDS011;5520;45.752;4.874;2022-09-16T01:55:17;5.23;;;1.90;;
10934;SDS011;5520;45.752;4.874;2022-09-16T01:57:47;2.70;;;1.50;;
10934;SDS011;5520;45.752;4.874;2022-09-16T02:00:17;2.00;;;1.80;;
10934;SDS011;5520;45.752;4.874;2022-09-16T02:02:47;2.40;;;1.57;;
10934;SDS011;5520;45.752;4.874;2022-09-16T02:05:17;3.23;;;2.20;;
10934;SDS011;5520;45.752;4.874;2022-09-16T02:07:48;2.13;;;1.80;;
10934;SDS011;5520;45.752;4.874;2022-09-16T02:10:19;1.93;;;1.83;;
10934;SDS011;5520;45.752;4.874;2022-09-16T02:12:48;2.13;;;1.90;;
10934;SDS011;5520;45.752;4.874;2022-09-16T02:15:17;2.67;;;1.90;;
10934;SDS011;5520;45.752;4.874;2022-09-16T02:17:50;2.63;;;1.70;;
10934;SDS011;5520;45.752;4.874;2022-09-16T02:20:19;3.93;;;1.90;;
10934;SDS011;5520;45.752;4.874;2022-09-16T02:22:50;1.83;;;1.73;;
10934;SDS011;5520;45.752;4.874;2022-09-16T02:25:20;2.00;;;1.70;;
10934;SDS011;5520;45.752;4.874;2022-09-16T02:27:49;2.13;;;1.90;;
10934;SDS011;5520;45.752;4.874;2022-09-16T02:30:19;1.53;;;1.40;;
10934;SDS011;5520;45.752;4.874;2022-09-16T02:32:49;1.63;;;1.53;;
10934;SDS011;5520;45.752;4.874;2022-09-16T02:35:18;2.53;;;1.80;;
10934;SDS011;5520;45.752;4.874;2022-09-16T02:37:48;2.13;;;1.93;;
10934;SDS011;5520;45.752;4.874;2022-09-16T02:40:18;2.07;;;1.97;;
10934;SDS011;5520;45.752;4.874;2022-09-16T02:42:47;1.87;;;1.60;;
10934;SDS011;5520;45.752;4.874;2022-09-16T02:45:15;1.80;;;1.70;;
10934;SDS011;5520;45.752;4.874;2022-09-16T02:47:44;2.30;;;1.93;;
10934;SDS011;5520;45.752;4.874;2022-09-16T02:50:16;3.40;;;2.07;;
10934;SDS011;5520;45.752;4.874;2022-09-16T02:52:47;2.63;;;1.73;;
10934;SDS011;5520;45.752;4.874;2022-09-16T02:55:19;2.13;;;1.93;;
10934;SDS011;5520;45.752;4.874;2022-09-16T02:57:49;3.03;;;1.87;;
10934;SDS011;5520;45.752;4.874;2022-09-16T03:00:17;2.20;;;2.00;;
10934;SDS011;5520;45.752;4.874;2022-09-16T03:02:46;2.93;;;1.70;;
10934;SDS011;5520;45.752;4.874;2022-09-16T03:05:15;1.53;;;1.43;;
10934;SDS011;5520;45.752;4.874;2022-09-16T03:07:43;3.83;;;1.80;;
10934;SDS011;5520;45.752;4.874;2022-09-16T03:10:11;3.33;;;1.70;;
10934;SDS011;5520;45.752;4.874;2022-09-16T03:12:51;2.93;;;1.97;;
10934;SDS011;5520;45.752;4.874;2022-09-16T03:18:18;2.83;;;1.70;;
10934;SDS011;5520;45.752;4.874;2022-09-16T03:20:52;2.30;;;2.10;;
10934;SDS011;5520;45.752;4.874;2022-09-16T03:23:25;3.87;;;2.13;;
10934;SDS011;5520;45.752;4.874;2022-09-16T03:25:59;1.97;;;1.87;;
10934;SDS011;5520;45.752;4.874;2022-09-16T03:28:30;1.90;;;1.80;;
10934;SDS011;5520;45.752;4.874;2022-09-16T03:31:05;3.37;;;2.23;;
10934;SDS011;5520;45.752;4.874;2022-09-16T03:33:34;1.90;;;1.80;;
10934;SDS011;5520;45.752;4.874;2022-09-16T03:36:06;3.03;;;1.90;;
10934;SDS011;5520;45.752;4.874;2022-09-16T03:38:35;2.90;;;2.10;;
10934;SDS011;5520;45.752;4.874;2022-09-16T03:41:04;1.97;;;1.80;;
10934;SDS011;5520;45.752;4.874;2022-09-16T03:43:33;4.40;;;1.77;;
10934;SDS011;5520;45.752;4.874;2022-09-16T03:46:01;2.10;;;1.90;;
10934;SDS011;5520;45.752;4.874;2022-09-16T03:48:30;4.27;;;2.17;;
10934;SDS011;5520;45.752;4.874;2022-09-16T03:51:01;2.10;;;1.90;;
10934;SDS011;5520;45.752;4.874;2022-09-16T03:53:30;2.50;;;2.30;;
10934;SDS011;5520;45.752;4.874;2022-09-16T03:55:59;3.33;;;2.37;;
10934;SDS011;5520;45.752;4.874;2022-09-16T03:58:26;2.20;;;2.10;;
10934;SDS011;5520;45.752;4.874;2022-09-16T04:00:57;1.97;;;1.87;;
10934;SDS011;5520;45.752;4.874;2022-09-16T04:03:25;2.60;;;2.20;;
10934;SDS011;5520;45.752;4.874;2022-09-16T04:05:58;2.80;;;1.93;;
10934;SDS011;5520;45.752;4.874;2022-09-16T04:08:26;2.00;;;1.80;;
10934;SDS011;5520;45.752;4.874;2022-09-16T04:10:56;4.50;;;2.20;;
10934;SDS011;5520;45.752;4.874;2022-09-16T04:13:24;2.97;;;1.93;;
10934;SDS011;5520;45.752;4.874;2022-09-16T04:15:52;2.67;;;1.70;;
10934;SDS011;5520;45.752;4.874;2022-09-16T04:18:20;2.60;;;1.90;;
10934;SDS011;5520;45.752;4.874;2022-09-16T04:20:48;4.07;;;2.17;;
10934;SDS011;5520;45.752;4.874;2022-09-16T04:23:16;3.90;;;1.93;;
10934;SDS011;5520;45.752;4.874;2022-09-16T04:25:49;6.00;;;5.47;;
10934;SDS011;5520;45.752;4.874;2022-09-16T04:28:21;4.13;;;3.80;;
10934;SDS011;5520;45.752;4.874;2022-09-16T04:30:49;4.10;;;2.57;;
10934;SDS011;5520;45.752;4.874;2022-09-16T04:33:17;4.33;;;2.03;;
10934;SDS011;5520;45.752;4.874;2022-09-16T04:35:45;2.50;;;2.00;;
10934;SDS011;5520;45.752;4.874;2022-09-16T04:38:13;2.93;;;1.70;;
10934;SDS011;5520;45.752;4.874;2022-09-16T04:40:41;2.20;;;1.87;;
10934;SDS011;5520;45.752;4.874;2022-09-16T04:43:09;2.30;;;2.10;;
10934;SDS011;5520;45.752;4.874;2022-09-16T04:45:38;2.57;;;2.37;;
10934;SDS011;5520;45.752;4.874;2022-09-16T04:48:06;2.67;;;2.47;;
10934;SDS011;5520;45.752;4.874;2022-09-16T04:50:34;2.97;;;2.33;;
10934;SDS011;5520;45.752;4.874;2022-09-16T04:53:02;4.83;;;2.03;;
10934;SDS011;5520;45.752;4.874;2022-09-16T04:55:31;2.23;;;2.10;;
10934;SDS011;5520;45.752;4.874;2022-09-16T04:57:59;2.27;;;2.17;;
10934;SDS011;5520;45.752;4.874;2022-09-16T05:00:27;7.90;;;2.40;;
10934;SDS011;5520;45.752;4.874;2022-09-16T05:02:56;3.03;;;2.20;;
10934;SDS011;5520;45.752;4.874;2022-09-16T05:05:24;2.73;;;2.53;;
10934;SDS011;5520;45.752;4.874;2022-09-16T05:07:52;7.53;;;2.70;;
10934;SDS011;5520;45.752;4.874;2022-09-16T05:10:20;3.97;;;2.20;;
10934;SDS011;5520;45.752;4.874;2022-09-16T05:12:49;4.67;;;2.20;;
10934;SDS011;5520;45.752;4.874;2022-09-16T05:15:17;4.37;;;2.10;;
10934;SDS011;5520;45.752;4.874;2022-09-16T05:17:45;2.43;;;2.20;;
10934;SDS011;5520;45.752;4.874;2022-09-16T05:20:18;4.90;;;2.20;;
10934;SDS011;5520;45.752;4.874;2022-09-16T05:22:47;3.43;;;2.23;;
10934;SDS011;5520;45.752;4.874;2022-09-16T05:25:15;4.57;;;2.97;;
10934;SDS011;5520;45.752;4.874;2022-09-16T05:27:46;2.37;;;2.17;;
10934;SDS011;5520;45.752;4.874;2022-09-16T05:30:14;1.83;;;1.70;;
10934;SDS011;5520;45.752;4.874;2022-09-16T05:32:42;2.07;;;1.97;;
10934;SDS011;5520;45.752;4.874;2022-09-16T05:35:10;6.70;;;2.53;;
10934;SDS011;5520;45.752;4.874;2022-09-16T05:37:40;3.63;;;2.30;;
10934;SDS011;5520;45.752;4.874;2022-09-16T05:40:08;3.00;;;2.10;;
10934;SDS011;5520;45.752;4.874;2022-09-16T05:42:36;4.93;;;2.60;;
10934;SDS011;5520;45.752;4.874;2022-09-16T05:45:04;3.20;;;2.50;;
10934;SDS011;5520;45.752;4.874;2022-09-16T05:47:32;7.23;;;2.50;;
10934;SDS011;5520;45.752;4.874;2022-09-16T05:50:00;4.33;;;2.30;;
10934;SDS011;5520;45.752;4.874;2022-09-16T05:52:28;6.83;;;2.63;;
10934;SDS011;5520;45.752;4.874;2022-09-16T05:54:57;4.30;;;2.40;;
10934;SDS011;5520;45.752;4.874;2022-09-16T05:57:25;6.63;;;3.77;;
10934;SDS011;5520;45.752;4.874;2022-09-16T05:59:53;9.83;;;3.07;;
10934;SDS011;5520;45.752;4.874;2022-09-16T06:02:21;4.43;;;2.43;;
10934;SDS011;5520;45.752;4.874;2022-09-16T06:04:49;8.40;;;3.57;;
10934;SDS011;5520;45.752;4.874;2022-09-16T06:07:18;8.33;;;2.67;;
10934;SDS011;5520;45.752;4.874;2022-09-16T06:09:46;2.40;;;2.20;;
10934;SDS011;5520;45.752;4.874;2022-09-16T06:12:15;5.60;;;2.93;;
10934;SDS011;5520;45.752;4.874;2022-09-16T06:14:44;3.03;;;2.60;;
10934;SDS011;5520;45.752;4.874;2022-09-16T06:17:12;4.17;;;2.73;;
10934;SDS011;5520;45.752;4.874;2022-09-16T06:19:40;4.43;;;2.97;;
10934;SDS011;5520;45.752;4.874;2022-09-16T06:22:08;5.83;;;2.77;;
10934;SDS011;5520;45.752;4.874;2022-09-16T06:24:35;4.33;;;2.60;;
10934;SDS011;5520;45.752;4.874;2022-09-16T06:27:03;3.87;;;2.77;;
10934;SDS011;5520;45.752;4.874;2022-09-16T06:29:33;4.83;;;2.63;;
10934;SDS011;5520;45.752;4.874;2022-09-16T06:32:01;4.83;;;2.80;;
10934;SDS011;5520;45.752;4.874;2022-09-16T06:34:29;3.50;;;2.70;;
10934;SDS011;5520;45.752;4.874;2022-09-16T06:36:57;7.17;;;3.10;;
10934;SDS011;5520;45.752;4.874;2022-09-16T06:39:25;5.13;;;2.27;;
10934;SDS011;5520;45.752;4.874;2022-09-16T06:41:54;2.83;;;2.20;;
10934;SDS011;5520;45.752;4.874;2022-09-16T06:44:22;7.00;;;3.07;;
10934;SDS011;5520;45.752;4.874;2022-09-16T06:46:52;3.93;;;2.60;;
10934;SDS011;5520;45.752;4.874;2022-09-16T06:49:20;5.20;;;2.83;;
10934;SDS011;5520;45.752;4.874;2022-09-16T06:51:48;7.30;;;2.93;;
10934;SDS011;5520;45.752;4.874;2022-09-16T06:54:17;2.83;;;2.60;;
10934;SDS011;5520;45.752;4.874;2022-09-16T06:56:45;3.83;;;2.37;;
10934;SDS011;5520;45.752;4.874;2022-09-16T06:59:13;6.17;;;3.13;;
10934;SDS011;5520;45.752;4.874;2022-09-16T07:01:41;3.20;;;2.57;;
10934;SDS011;5520;45.752;4.874;2022-09-16T07:04:10;4.23;;;2.90;;
10934;SDS011;5520;45.752;4.874;2022-09-16T07:06:39;3.57;;;2.80;;
10934;SDS011;5520;45.752;4.874;2022-09-16T07:09:27;7.57;;;2.50;;
10934;SDS011;5520;45.752;4.874;2022-09-16T07:11:55;6.23;;;2.43;;
10934;SDS011;5520;45.752;4.874;2022-09-16T07:14:24;3.23;;;2.30;;
10934;SDS011;5520;45.752;4.874;2022-09-16T07:16:53;3.63;;;2.83;;
10934;SDS011;5520;45.752;4.874;2022-09-16T07:19:22;4.43;;;2.53;;
10934;SDS011;5520;45.752;4.874;2022-09-16T07:21:50;7.60;;;2.83;;
10934;SDS011;5520;45.752;4.874;2022-09-16T07:24:18;4.97;;;2.37;;
10934;SDS011;5520;45.752;4.874;2022-09-16T07:26:46;4.50;;;2.70;;
10934;SDS011;5520;45.752;4.874;2022-09-16T07:29:15;4.20;;;2.87;;
10934;SDS011;5520;45.752;4.874;2022-09-16T07:31:43;8.03;;;2.57;;
10934;SDS011;5520;45.752;4.874;2022-09-16T07:34:12;3.23;;;2.37;;
10934;SDS011;5520;45.752;4.874;2022-09-16T07:36:42;3.00;;;2.37;;
10934;SDS011;5520;45.752;4.874;2022-09-16T07:39:10;3.80;;;2.53;;
10934;SDS011;5520;45.752;4.874;2022-09-16T07:41:39;9.63;;;2.57;;
10934;SDS011;5520;45.752;4.874;2022-09-16T07:44:09;3.30;;;2.20;;
10934;SDS011;5520;45.752;4.874;2022-09-16T07:46:38;3.70;;;2.10;;
10934;SDS011;5520;45.752;4.874;2022-09-16T07:49:06;2.80;;;2.13;;
10934;SDS011;5520;45.752;4.874;2022-09-16T07:51:35;6.23;;;2.67;;
10934;SDS011;5520;45.752;4.874;2022-09-16T07:54:07;7.03;;;2.33;;
10934;SDS011;5520;45.752;4.874;2022-09-16T07:56:43;4.13;;;2.47;;
10934;SDS011;5520;45.752;4.874;2022-09-16T07:59:13;2.73;;;2.40;;
10934;SDS011;5520;45.752;4.874;2022-09-16T08:01:44;4.60;;;2.43;;
10934;SDS011;5520;45.752;4.874;2022-09-16T08:04:12;3.97;;;2.70;;
10934;SDS011;5520;45.752;4.874;2022-09-16T08:06:40;3.77;;;2.13;;
10934;SDS011;5520;45.752;4.874;2022-09-16T08:09:10;4.60;;;2.50;;
10934;SDS011;5520;45.752;4.874;2022-09-16T08:11:58;6.00;;;3.67;;
10934;SDS011;5520;45.752;4.874;2022-09-16T08:14:26;4.17;;;2.67;;
10934;SDS011;5520;45.752;4.874;2022-09-16T08:16:54;4.03;;;2.13;;
10934;SDS011;5520;45.752;4.874;2022-09-16T08:19:22;4.47;;;3.00;;
10934;SDS011;5520;45.752;4.874;2022-09-16T08:21:50;2.20;;;2.10;;
10934;SDS011;5520;45.752;4.874;2022-09-16T08:24:20;5.30;;;2.80;;
10934;SDS011;5520;45.752;4.874;2022-09-16T08:26:48;2.60;;;2.40;;
10934;SDS011;5520;45.752;4.874;2022-09-16T08:29:16;2.47;;;2.07;;
10934;SDS011;5520;45.752;4.874;2022-09-16T08:31:45;3.30;;;2.40;;
10934;SDS011;5520;45.752;4.874;2022-09-16T08:34:13;2.17;;;1.97;;
10934;SDS011;5520;45.752;4.874;2022-09-16T08:36:42;3.70;;;2.70;;
10934;SDS011;5520;45.752;4.874;2022-09-16T08:39:10;6.03;;;2.63;;
10934;SDS011;5520;45.752;4.874;2022-09-16T08:41:44;3.87;;;2.50;;
10934;SDS011;5520;45.752;4.874;2022-09-16T08:44:19;3.10;;;2.53;;
10934;SDS011;5520;45.752;4.874;2022-09-16T08:46:50;5.83;;;2.67;;
10934;SDS011;5520;45.752;4.874;2022-09-16T08:49:21;6.23;;;2.80;;
10934;SDS011;5520;45.752;4.874;2022-09-16T08:51:52;4.37;;;2.77;;
10934;SDS011;5520;45.752;4.874;2022-09-16T08:54:24;2.70;;;2.50;;
10934;SDS011;5520;45.752;4.874;2022-09-16T08:56:56;3.70;;;2.40;;
10934;SDS011;5520;45.752;4.874;2022-09-16T08:59:27;3.00;;;2.70;;
10934;SDS011;5520;45.752;4.874;2022-09-16T09:01:56;2.53;;;2.30;;
10934;SDS011;5520;45.752;4.874;2022-09-16T09:04:33;4.53;;;2.43;;
10934;SDS011;5520;45.752;4.874;2022-09-16T09:07:07;2.70;;;2.50;;
10934;SDS011;5520;45.752;4.874;2022-09-16T09:09:42;3.20;;;2.30;;
10934;SDS011;5520;45.752;4.874;2022-09-16T09:12:17;4.33;;;2.47;;
10934;SDS011;5520;45.752;4.874;2022-09-16T09:14:52;3.30;;;2.70;;
10934;SDS011;5520;45.752;4.874;2022-09-16T09:17:28;5.53;;;2.70;;
10934;SDS011;5520;45.752;4.874;2022-09-16T09:20:15;3.03;;;2.07;;
10934;SDS011;5520;45.752;4.874;2022-09-16T09:22:53;2.83;;;2.27;;
10934;SDS011;5520;45.752;4.874;2022-09-16T09:25:26;3.97;;;2.37;;
10934;SDS011;5520;45.752;4.874;2022-09-16T09:28:01;2.70;;;2.30;;
10934;SDS011;5520;45.752;4.874;2022-09-16T09:30:32;3.87;;;2.37;;
10934;SDS011;5520;45.752;4.874;2022-09-16T09:33:05;3.07;;;2.70;;
10934;SDS011;5520;45.752;4.874;2022-09-16T09:36:02;4.33;;;1.97;;
10934;SDS011;5520;45.752;4.874;2022-09-16T09:38:48;2.10;;;2.00;;
10934;SDS011;5520;45.752;4.874;2022-09-16T09:41:17;3.53;;;2.23;;
10934;SDS011;5520;45.752;4.874;2022-09-16T09:43:49;4.80;;;2.40;;
10934;SDS011;5520;45.752;4.874;2022-09-16T09:46:21;4.27;;;2.17;;
10934;SDS011;5520;45.752;4.874;2022-09-16T09:48:53;3.87;;;2.17;;
10934;SDS011;5520;45.752;4.874;2022-09-16T09:51:24;3.53;;;2.60;;
10934;SDS011;5520;45.752;4.874;2022-09-16T09:53:55;2.67;;;2.47;;
10934;SDS011;5520;45.752;4.874;2022-09-16T09:56:26;3.27;;;2.30;;
10934;SDS011;5520;45.752;4.874;2022-09-16T09:58:59;2.87;;;2.10;;
10934;SDS011;5520;45.752;4.874;2022-09-16T10:01:31;3.00;;;2.33;;
10934;SDS011;5520;45.752;4.874;2022-09-16T10:04:00;2.50;;;2.30;;
10934;SDS011;5520;45.752;4.874;2022-09-16T10:06:32;2.40;;;2.03;;
10934;SDS011;5520;45.752;4.874;2022-09-16T10:09:00;4.00;;;2.00;;
10934;SDS011;5520;45.752;4.874;2022-09-16T10:11:29;3.50;;;2.40;;
10934;SDS011;5520;45.752;4.874;2022-09-16T10:13:59;6.00;;;3.20;;
10934;SDS011;5520;45.752;4.874;2022-09-16T10:16:28;3.77;;;2.40;;
10934;SDS011;5520;45.752;4.874;2022-09-16T10:18:59;4.70;;;2.80;;
10934;SDS011;5520;45.752;4.874;2022-09-16T10:21:36;5.27;;;2.37;;
10934;SDS011;5520;45.752;4.874;2022-09-16T10:24:18;2.37;;;2.17;;
10934;SDS011;5520;45.752;4.874;2022-09-16T10:26:50;2.50;;;2.30;;
10934;SDS011;5520;45.752;4.874;2022-09-16T10:29:20;3.53;;;2.30;;
10934;SDS011;5520;45.752;4.874;2022-09-16T10:31:48;2.33;;;2.13;;
10934;SDS011;5520;45.752;4.874;2022-09-16T10:34:17;5.57;;;3.20;;
10934;SDS011;5520;45.752;4.874;2022-09-16T10:36:57;5.33;;;3.83;;
10934;SDS011;5520;45.752;4.874;2022-09-16T10:39:25;7.60;;;3.10;;
10934;SDS011;5520;45.752;4.874;2022-09-16T10:41:54;4.33;;;3.20;;
10934;SDS011;5520;45.752;4.874;2022-09-16T10:44:24;4.40;;;3.20;;
10934;SDS011;5520;45.752;4.874;2022-09-16T10:46:54;6.30;;;3.13;;
10934;SDS011;5520;45.752;4.874;2022-09-16T10:49:25;7.83;;;4.30;;
10934;SDS011;5520;45.752;4.874;2022-09-16T10:51:54;9.77;;;4.80;;
10934;SDS011;5520;45.752;4.874;2022-09-16T10:54:33;6.70;;;4.23;;
10934;SDS011;5520;45.752;4.874;2022-09-16T10:57:01;6.23;;;3.60;;
10934;SDS011;5520;45.752;4.874;2022-09-16T10:59:30;3.43;;;3.10;;
10934;SDS011;5520;45.752;4.874;2022-09-16T11:02:00;4.90;;;3.57;;
10934;SDS011;5520;45.752;4.874;2022-09-16T11:07:20;4.13;;;2.87;;
10934;SDS011;5520;45.752;4.874;2022-09-16T11:09:53;4.33;;;2.83;;
10934;SDS011;5520;45.752;4.874;2022-09-16T11:12:32;5.87;;;3.13;;
10934;SDS011;5520;45.752;4.874;2022-09-16T11:15:06;6.23;;;2.97;;
10934;SDS011;5520;45.752;4.874;2022-09-16T11:17:41;3.37;;;2.57;;
10934;SDS011;5520;45.752;4.874;2022-09-16T11:23:00;6.73;;;2.80;;
10934;SDS011;5520;45.752;4.874;2022-09-16T11:25:35;3.17;;;2.97;;
10934;SDS011;5520;45.752;4.874;2022-09-16T11:28:11;5.30;;;2.87;;
10934;SDS011;5520;45.752;4.874;2022-09-16T11:30:46;3.70;;;3.40;;
10934;SDS011;5520;45.752;4.874;2022-09-16T11:33:20;4.57;;;2.90;;
10934;SDS011;5520;45.752;4.874;2022-09-16T11:38:48;6.23;;;3.40;;
10934;SDS011;5520;45.752;4.874;2022-09-16T11:41:18;3.97;;;2.97;;
10934;SDS011;5520;45.752;4.874;2022-09-16T11:44:00;3.00;;;2.70;;
10934;SDS011;5520;45.752;4.874;2022-09-16T11:46:35;3.90;;;2.73;;
10934;SDS011;5520;45.752;4.874;2022-09-16T11:49:12;6.00;;;3.37;;
10934;SDS011;5520;45.752;4.874;2022-09-16T11:51:52;4.90;;;2.87;;
10934;SDS011;5520;45.752;4.874;2022-09-16T11:54:28;3.20;;;2.90;;
10934;SDS011;5520;45.752;4.874;2022-09-16T11:57:00;5.20;;;3.00;;
10934;SDS011;5520;45.752;4.874;2022-09-16T11:59:29;5.03;;;3.40;;
10934;SDS011;5520;45.752;4.874;2022-09-16T12:02:02;3.97;;;2.90;;
10934;SDS011;5520;45.752;4.874;2022-09-16T12:04:36;5.70;;;3.10;;
10934;SDS011;5520;45.752;4.874;2022-09-16T12:07:08;6.20;;;3.27;;
10934;SDS011;5520;45.752;4.874;2022-09-16T12:09:44;7.00;;;3.30;;
10934;SDS011;5520;45.752;4.874;2022-09-16T12:12:15;3.40;;;2.93;;
10934;SDS011;5520;45.752;4.874;2022-09-16T12:14:45;4.93;;;2.97;;
10934;SDS011;5520;45.752;4.874;2022-09-16T12:17:18;6.50;;;3.03;;
10934;SDS011;5520;45.752;4.874;2022-09-16T12:19:50;3.90;;;2.70;;
10934;SDS011;5520;45.752;4.874;2022-09-16T12:22:19;4.53;;;2.40;;
10934;SDS011;5520;45.752;4.874;2022-09-16T12:24:50;3.57;;;2.80;;
10934;SDS011;5520;45.752;4.874;2022-09-16T12:27:25;4.17;;;2.23;;
10934;SDS011;5520;45.752;4.874;2022-09-16T12:29:54;5.90;;;2.53;;
10934;SDS011;5520;45.752;4.874;2022-09-16T12:32:27;2.97;;;2.57;;
10934;SDS011;5520;45.752;4.874;2022-09-16T12:34:58;4.90;;;3.07;;
10934;SDS011;5520;45.752;4.874;2022-09-16T12:37:30;4.97;;;2.93;;
10934;SDS011;5520;45.752;4.874;2022-09-16T12:40:00;3.03;;;2.63;;
10934;SDS011;5520;45.752;4.874;2022-09-16T12:45:27;2.67;;;2.30;;
10934;SDS011;5520;45.752;4.874;2022-09-16T12:48:13;3.10;;;2.50;;
10934;SDS011;5520;45.752;4.874;2022-09-16T12:50:52;3.63;;;2.70;;
10934;SDS011;5520;45.752;4.874;2022-09-16T12:56:13;5.30;;;3.00;;
10934;SDS011;5520;45.752;4.874;2022-09-16T13:01:38;2.77;;;2.57;;
10934;SDS011;5520;45.752;4.874;2022-09-16T13:04:09;2.90;;;2.70;;
10934;SDS011;5520;45.752;4.874;2022-09-16T13:06:43;3.70;;;2.33;;
10934;SDS011;5520;45.752;4.874;2022-09-16T13:09:21;6.23;;;3.00;;
10934;SDS011;5520;45.752;4.874;2022-09-16T13:11:51;3.07;;;2.80;;
10934;SDS011;5520;45.752;4.874;2022-09-16T13:14:43;3.90;;;2.70;;
10934;SDS011;5520;45.752;4.874;2022-09-16T13:17:13;7.23;;;2.70;;
10934;SDS011;5520;45.752;4.874;2022-09-16T13:19:46;4.60;;;2.43;;
10934;SDS011;5520;45.752;4.874;2022-09-16T13:22:19;3.13;;;2.33;;
10934;SDS011;5520;45.752;4.874;2022-09-16T13:24:52;3.23;;;2.50;;
10934;SDS011;5520;45.752;4.874;2022-09-16T13:27:25;5.40;;;2.20;;
10934;SDS011;5520;45.752;4.874;2022-09-16T13:32:38;4.70;;;2.60;;
10934;SDS011;5520;45.752;4.874;2022-09-16T13:35:23;3.93;;;2.50;;
10934;SDS011;5520;45.752;4.874;2022-09-16T13:37:52;3.93;;;2.30;;
10934;SDS011;5520;45.752;4.874;2022-09-16T13:40:22;8.23;;;2.90;;
10934;SDS011;5520;45.752;4.874;2022-09-16T13:42:51;2.73;;;2.23;;
10934;SDS011;5520;45.752;4.874;2022-09-16T13:45:33;3.27;;;2.23;;
10934;SDS011;5520;45.752;4.874;2022-09-16T13:48:04;4.20;;;2.30;;
10934;SDS011;5520;45.752;4.874;2022-09-16T13:50:39;4.87;;;3.17;;
10934;SDS011;5520;45.752;4.874;2022-09-16T13:53:08;2.30;;;2.10;;
10934;SDS011;5520;45.752;4.874;2022-09-16T13:55:37;2.27;;;1.97;;
10934;SDS011;5520;45.752;4.874;2022-09-16T13:58:09;3.83;;;2.30;;
10934;SDS011;5520;45.752;4.874;2022-09-16T14:00:39;3.37;;;2.40;;
10934;SDS011;5520;45.752;4.874;2022-09-16T14:03:26;2.77;;;2.47;;
10934;SDS011;5520;45.752;4.874;2022-09-16T14:06:07;4.27;;;2.57;;
10934;SDS011;5520;45.752;4.874;2022-09-16T14:08:38;2.90;;;2.00;;
10934;SDS011;5520;45.752;4.874;2022-09-16T14:11:11;2.30;;;2.10;;
10934;SDS011;5520;45.752;4.874;2022-09-16T14:13:41;4.17;;;2.20;;
10934;SDS011;5520;45.752;4.874;2022-09-16T14:16:13;3.53;;;2.10;;
10934;SDS011;5520;45.752;4.874;2022-09-16T14:18:43;2.37;;;2.17;;
10934;SDS011;5520;45.752;4.874;2022-09-16T14:21:18;4.73;;;2.77;;
10934;SDS011;5520;45.752;4.874;2022-09-16T14:23:46;2.57;;;2.10;;
10934;SDS011;5520;45.752;4.874;2022-09-16T14:26:15;2.33;;;2.00;;
10934;SDS011;5520;45.752;4.874;2022-09-16T14:28:43;6.10;;;2.17;;
10934;SDS011;5520;45.752;4.874;2022-09-16T14:31:13;3.00;;;2.37;;
10934;SDS011;5520;45.752;4.874;2022-09-16T14:33:42;3.47;;;2.20;;
10934;SDS011;5520;45.752;4.874;2022-09-16T14:36:11;2.60;;;2.40;;
10934;SDS011;5520;45.752;4.874;2022-09-16T14:38:42;3.17;;;2.30;;
10934;SDS011;5520;45.752;4.874;2022-09-16T14:41:15;3.40;;;2.13;;
10934;SDS011;5520;45.752;4.874;2022-09-16T14:43:46;3.50;;;2.13;;
10934;SDS011;5520;45.752;4.874;2022-09-16T14:46:14;3.53;;;2.03;;
10934;SDS011;5520;45.752;4.874;2022-09-16T14:48:42;2.97;;;2.30;;
10934;SDS011;5520;45.752;4.874;2022-09-16T14:51:12;5.93;;;2.60;;
10934;SDS011;5520;45.752;4.874;2022-09-16T14:53:42;3.07;;;2.10;;
10934;SDS011;5520;45.752;4.874;2022-09-16T14:56:38;3.10;;;2.20;;
10934;SDS011;5520;45.752;4.874;2022-09-16T14:59:07;4.43;;;2.00;;
10934;SDS011;5520;45.752;4.874;2022-09-16T15:01:35;3.30;;;2.43;;
10934;SDS011;5520;45.752;4.874;2022-09-16T15:04:04;3.83;;;1.90;;
10934;SDS011;5520;45.752;4.874;2022-09-16T15:06:34;3.47;;;2.20;;
10934;SDS011;5520;45.752;4.874;2022-09-16T15:09:12;2.93;;;2.60;;
10934;SDS011;5520;45.752;4.874;2022-09-16T15:11:43;2.83;;;2.27;;
10934;SDS011;5520;45.752;4.874;2022-09-16T15:14:14;4.10;;;2.20;;
10934;SDS011;5520;45.752;4.874;2022-09-16T15:16:43;3.10;;;2.27;;
10934;SDS011;5520;45.752;4.874;2022-09-16T15:19:14;3.53;;;2.13;;
10934;SDS011;5520;45.752;4.874;2022-09-16T15:21:43;3.57;;;2.50;;
10934;SDS011;5520;45.752;4.874;2022-09-16T15:24:17;4.57;;;2.50;;
10934;SDS011;5520;45.752;4.874;2022-09-16T15:26:47;2.83;;;2.07;;
10934;SDS011;5520;45.752;4.874;2022-09-16T15:29:25;4.17;;;2.30;;
10934;SDS011;5520;45.752;4.874;2022-09-16T15:31:53;2.10;;;1.90;;
10934;SDS011;5520;45.752;4.874;2022-09-16T15:34:32;3.83;;;2.40;;
10934;SDS011;5520;45.752;4.874;2022-09-16T15:37:00;2.53;;;2.30;;
10934;SDS011;5520;45.752;4.874;2022-09-16T15:39:30;7.03;;;2.20;;
10934;SDS011;5520;45.752;4.874;2022-09-16T15:42:02;3.73;;;2.10;;
10934;SDS011;5520;45.752;4.874;2022-09-16T15:44:31;2.40;;;2.20;;
10934;SDS011;5520;45.752;4.874;2022-09-16T15:47:03;2.00;;;1.90;;